createdAt,value
2019-04-01T05:00:05.276Z,4.17
2019-04-01T05:02:35.224Z,4.15
2019-04-01T05:05:05.193Z,4.20
2019-04-01T05:07:36.377Z,4.17
2019-04-01T05:10:07.061Z,4.14
2019-04-01T05:12:39.483Z,4.16
2019-04-01T05:15:10.405Z,4.13
2019-04-01T05:17:40.205Z,4.19
2019-04-01T05:20:10.542Z,4.16
2019-04-01T05:22:41.994Z,4.22
2019-04-01T05:25:12.869Z,4.26
2019-04-01T05:27:43.454Z,4.30
2019-04-01T05:30:14.116Z,4.30
2019-04-01T05:32:45.692Z,4.35
2019-04-01T05:35:18.416Z,4.40
2019-04-01T05:37:47.946Z,4.51
2019-04-01T05:40:20.227Z,4.48
2019-04-01T05:42:50.846Z,4.57
2019-04-01T05:45:22.305Z,4.32
2019-04-01T05:47:53.427Z,4.32
2019-04-01T05:50:22.869Z,4.34
2019-04-01T05:52:52.258Z,4.30
2019-04-01T05:55:21.918Z,4.37
2019-04-01T05:57:52.729Z,4.35
2019-04-01T06:00:28.172Z,4.35
2019-04-01T06:02:58.009Z,4.56
2019-04-01T06:05:27.618Z,4.55
2019-04-01T06:07:57.011Z,4.64
2019-04-01T06:10:28.422Z,4.74
2019-04-01T06:12:58.344Z,4.67
2019-04-01T06:15:27.999Z,4.72
2019-04-01T06:17:57.833Z,4.83
2019-04-01T06:20:27.323Z,4.97
2019-04-01T06:22:56.836Z,5.04
2019-04-01T06:25:27.590Z,5.07
2019-04-01T06:27:58.324Z,5.16
2019-04-01T06:30:29.263Z,5.30
2019-04-01T06:33:00.406Z,5.30
2019-04-01T06:35:30.023Z,5.34
2019-04-01T06:37:59.617Z,5.53
2019-04-01T06:40:30.777Z,5.59
2019-04-01T06:43:00.420Z,5.61
2019-04-01T06:45:29.880Z,5.78
2019-04-01T06:48:00.888Z,5.89
2019-04-01T06:50:30.386Z,5.96
2019-04-01T06:53:01.584Z,6.03
2019-04-01T06:55:32.438Z,6.13
2019-04-01T06:58:03.689Z,6.27
2019-04-01T07:00:34.565Z,6.39
2019-04-01T07:03:06.066Z,6.52
2019-04-01T07:05:37.365Z,6.60
2019-04-01T07:08:08.451Z,6.78
2019-04-01T07:10:40.551Z,6.84
2019-04-01T07:13:09.982Z,6.76
2019-04-01T07:15:39.734Z,6.73
2019-04-01T07:18:09.360Z,6.78
2019-04-01T07:20:38.784Z,6.89
2019-04-01T07:23:09.956Z,7.06
2019-04-01T07:25:39.500Z,6.84
2019-04-01T07:28:09.702Z,6.97
2019-04-01T07:30:41.787Z,7.22
2019-04-01T07:33:10.928Z,8.19
2019-04-01T07:35:40.344Z,10.45
2019-04-01T07:38:09.875Z,11.79
2019-04-01T07:40:39.443Z,12.95
2019-04-01T07:43:09.131Z,13.79
2019-04-01T07:45:38.911Z,14.27
2019-04-01T07:48:12.379Z,15.35
2019-04-01T07:50:40.568Z,16.36
2019-04-01T07:53:10.260Z,16.10
2019-04-01T07:55:39.795Z,16.86
2019-04-01T07:58:09.208Z,17.49
2019-04-01T08:00:40.736Z,17.75
2019-04-01T08:03:11.666Z,17.97
2019-04-01T08:05:41.194Z,18.20
2019-04-01T08:08:11.256Z,18.22
2019-04-01T08:10:40.718Z,18.03
2019-04-01T08:13:10.143Z,17.76
2019-04-01T08:15:42.674Z,17.86
2019-04-01T08:18:13.738Z,17.95
2019-04-01T08:20:43.309Z,18.05
2019-04-01T08:23:13.226Z,17.99
2019-04-01T08:25:47.802Z,18.39
2019-04-01T08:28:15.956Z,18.68
2019-04-01T08:30:46.154Z,18.54
2019-04-01T08:33:15.735Z,19.86
2019-04-01T08:35:48.077Z,19.33
2019-04-01T08:38:17.893Z,19.13
2019-04-01T08:40:50.461Z,19.29
2019-04-01T08:43:19.983Z,19.64
2019-04-01T08:45:49.800Z,19.49
2019-04-01T08:48:19.280Z,19.10
2019-04-01T08:50:51.664Z,19.67
2019-04-01T08:53:22.725Z,19.10
2019-04-01T08:56:12.251Z,19.49
2019-04-01T08:58:41.832Z,20.22
2019-04-01T09:01:11.253Z,20.52
2019-04-01T09:03:40.850Z,20.41
2019-04-01T09:06:10.561Z,20.40
2019-04-01T09:08:42.334Z,19.98
2019-04-01T09:11:13.702Z,20.55
2019-04-01T09:13:44.993Z,20.78
2019-04-01T09:16:14.709Z,21.03
2019-04-01T09:18:46.669Z,20.82
2019-04-01T09:21:19.547Z,20.52
2019-04-01T09:23:52.012Z,20.25
2019-04-01T09:26:20.154Z,19.84
2019-04-01T09:28:49.600Z,19.49
2019-04-01T09:31:20.770Z,19.38
2019-04-01T09:33:50.172Z,18.99
2019-04-01T09:36:19.877Z,18.74
2019-04-01T09:38:50.941Z,18.25
2019-04-01T09:41:20.783Z,17.47
2019-04-01T09:43:50.559Z,16.44
2019-04-01T09:46:20.160Z,15.88
2019-04-01T09:48:50.734Z,15.52
2019-04-01T09:51:20.544Z,15.13
2019-04-01T09:53:51.763Z,14.46
2019-04-01T09:56:21.364Z,14.50
2019-04-01T09:58:52.101Z,13.90
2019-04-01T10:01:21.605Z,13.43
2019-04-01T10:03:51.173Z,13.39
2019-04-01T10:06:23.736Z,13.72
2019-04-01T10:08:54.970Z,13.44
2019-04-01T10:11:25.676Z,13.48
2019-04-01T10:13:55.358Z,13.39
2019-04-01T10:16:28.690Z,13.30
2019-04-01T10:18:58.298Z,13.25
2019-04-01T10:21:29.602Z,13.46
2019-04-01T10:24:00.512Z,13.17
2019-04-01T10:26:29.916Z,13.13
2019-04-01T10:28:59.726Z,12.97
2019-04-01T10:31:30.666Z,13.07
2019-04-01T10:34:00.099Z,13.13
2019-04-01T10:36:29.732Z,13.18
2019-04-01T10:39:01.080Z,13.30
2019-04-01T10:41:31.603Z,13.16
2019-04-01T10:44:04.744Z,13.09
2019-04-01T10:46:32.667Z,12.67
2019-04-01T10:49:03.279Z,12.43
2019-04-01T10:51:33.052Z,12.38
2019-04-01T10:54:02.611Z,12.18
2019-04-01T10:56:35.671Z,11.99
2019-04-01T10:59:03.510Z,12.09
2019-04-01T11:01:32.952Z,12.02
2019-04-01T11:04:02.558Z,12.21
2019-04-01T11:06:32.200Z,12.33
2019-04-01T11:09:01.720Z,12.21
2019-04-01T11:11:31.105Z,11.99
2019-04-01T11:14:00.532Z,11.99
2019-04-01T11:16:31.795Z,12.01
2019-04-01T11:19:01.141Z,11.96
2019-04-01T11:21:33.780Z,11.90
2019-04-01T11:24:03.370Z,11.77
2019-04-01T11:26:36.453Z,11.53
2019-04-01T11:29:07.717Z,11.55
2019-04-01T11:31:37.325Z,11.49
2019-04-01T11:34:08.075Z,11.92
2019-04-01T11:36:39.292Z,12.11
2019-04-01T11:39:12.694Z,11.89
2019-04-01T11:41:43.847Z,11.88
2019-04-01T11:44:15.086Z,11.55
2019-04-01T11:46:44.575Z,11.29
2019-04-01T11:49:14.122Z,11.32
2019-04-01T11:51:43.987Z,11.56
2019-04-01T11:54:14.656Z,11.79
2019-04-01T11:56:44.190Z,12.02
2019-04-01T11:59:15.431Z,11.92
2019-04-01T12:01:47.320Z,12.01
2019-04-01T12:04:18.059Z,12.02
2019-04-01T12:06:47.920Z,11.97
2019-04-01T12:09:17.454Z,11.89
2019-04-01T12:11:49.809Z,11.71
2019-04-01T12:14:20.739Z,11.83
2019-04-01T12:16:50.155Z,11.77
2019-04-01T12:19:19.692Z,11.88
2019-04-01T12:21:49.571Z,12.07
2019-04-01T12:24:21.551Z,12.05
2019-04-01T12:26:52.433Z,12.19
2019-04-01T12:29:22.202Z,12.09
2019-04-01T12:31:54.951Z,12.11
2019-04-01T12:34:26.037Z,12.21
2019-04-01T12:36:57.333Z,12.32
2019-04-01T12:39:29.319Z,12.20
2019-04-01T12:42:00.541Z,12.07
2019-04-01T12:44:30.235Z,12.28
2019-04-01T12:47:01.000Z,12.15
2019-04-01T12:49:30.414Z,12.03
2019-04-01T12:52:01.877Z,12.20
2019-04-01T12:54:32.978Z,12.26
2019-04-01T12:57:05.747Z,12.22
2019-04-01T12:59:35.379Z,11.98
2019-04-01T13:02:08.966Z,12.04
2019-04-01T13:04:41.384Z,12.00
2019-04-01T13:07:14.581Z,12.08
2019-04-01T13:09:46.030Z,12.09
2019-04-01T13:12:17.787Z,11.95
2019-04-01T13:14:50.365Z,12.07
2019-04-01T13:17:20.945Z,12.09
2019-04-01T13:19:50.666Z,12.10
2019-04-01T13:22:22.184Z,12.19
2019-04-01T13:24:53.120Z,12.41
2019-04-01T13:27:22.616Z,12.56
2019-04-01T13:29:53.659Z,12.51
2019-04-01T13:32:24.085Z,12.37
2019-04-01T13:34:55.559Z,12.61
2019-04-01T13:37:33.898Z,12.56
2019-04-01T13:40:03.544Z,12.56
2019-04-01T13:42:33.109Z,12.44
2019-04-01T13:45:02.860Z,12.55
2019-04-01T13:47:34.152Z,12.60
2019-04-01T13:50:04.889Z,12.53
2019-04-01T13:52:34.607Z,12.69
2019-04-01T13:55:09.913Z,12.70
2019-04-01T13:57:39.675Z,12.66
2019-04-01T14:00:10.092Z,12.74
2019-04-01T14:02:39.890Z,12.57
2019-04-01T14:05:09.636Z,12.61
2019-04-01T14:07:40.247Z,12.69
2019-04-01T14:10:10.271Z,12.65
2019-04-01T14:12:41.797Z,12.82
2019-04-01T14:15:11.736Z,12.86
2019-04-01T14:17:41.338Z,12.84
2019-04-01T14:20:11.367Z,13.05
2019-04-01T14:22:44.334Z,13.14
2019-04-01T14:25:15.321Z,12.92
2019-04-01T14:27:44.909Z,12.86
2019-04-01T14:30:15.668Z,12.77
2019-04-01T14:32:45.254Z,12.87
2019-04-01T14:35:14.799Z,12.85
2019-04-01T14:37:44.795Z,12.75
2019-04-01T14:40:14.696Z,12.70
2019-04-01T14:42:46.417Z,12.72
2019-04-01T14:45:16.371Z,12.68
2019-04-01T14:47:57.114Z,12.65
2019-04-01T14:50:17.106Z,12.69
2019-04-01T14:52:46.856Z,12.93
2019-04-01T14:55:18.048Z,13.04
2019-04-01T14:57:47.458Z,13.08
2019-04-01T15:00:17.420Z,12.95
2019-04-01T15:02:46.809Z,12.99
2019-04-01T15:05:17.288Z,13.00
2019-04-01T15:07:47.137Z,12.94
2019-04-01T15:10:17.418Z,12.82
2019-04-01T15:12:46.878Z,12.74
2019-04-01T15:15:16.829Z,12.73
2019-04-01T15:17:47.275Z,12.91
2019-04-01T15:20:17.319Z,12.98
2019-04-01T15:22:46.879Z,12.79
2019-04-01T15:25:16.376Z,12.79
2019-04-01T15:27:48.285Z,13.02
2019-04-01T15:30:18.424Z,12.91
2019-04-01T15:32:47.897Z,13.03
2019-04-01T15:35:17.518Z,13.07
2019-04-01T15:37:47.102Z,13.07
2019-04-01T15:40:18.251Z,13.47
2019-04-01T15:42:50.064Z,13.87
2019-04-01T15:45:21.497Z,13.93
2019-04-01T15:47:51.087Z,13.84
2019-04-01T15:50:28.144Z,13.86
2019-04-01T15:52:54.254Z,13.55
2019-04-01T15:55:25.066Z,13.38
2019-04-01T15:57:54.485Z,13.26
2019-04-01T16:00:24.654Z,13.17
2019-04-01T16:02:54.168Z,13.02
2019-04-01T16:05:23.820Z,12.84
2019-04-01T16:07:53.437Z,12.70
2019-04-01T16:10:22.925Z,12.67
2019-04-01T16:12:53.487Z,12.82
2019-04-01T16:15:23.164Z,12.82
2019-04-01T16:17:54.398Z,12.88
2019-04-01T16:20:23.910Z,12.94
2019-04-01T16:22:54.676Z,12.88
2019-04-01T16:25:25.140Z,12.84
2019-04-01T16:27:54.704Z,12.80
2019-04-01T16:30:24.316Z,12.62
2019-04-01T16:32:53.857Z,12.61
2019-04-01T16:35:24.958Z,12.47
2019-04-01T16:37:54.570Z,12.46
2019-04-01T16:40:26.807Z,12.43
2019-04-01T16:42:56.254Z,12.41
2019-04-01T16:45:32.523Z,12.30
2019-04-01T16:48:03.016Z,12.21
2019-04-01T16:50:32.430Z,12.15
2019-04-01T16:53:02.112Z,12.20
2019-04-01T16:55:31.510Z,12.12
2019-04-01T16:58:01.043Z,12.15
2019-04-01T17:00:30.458Z,12.23
2019-04-01T17:03:00.856Z,12.25
2019-04-01T17:05:33.960Z,12.16
2019-04-01T17:08:04.001Z,12.24
2019-04-01T17:10:33.598Z,12.08
2019-04-01T17:13:04.150Z,12.14
2019-04-01T17:15:35.212Z,12.01
2019-04-01T17:18:04.623Z,12.01
2019-04-01T17:20:34.291Z,12.03
2019-04-01T17:23:05.344Z,11.98
2019-04-01T17:25:35.872Z,11.93
2019-04-01T17:28:06.746Z,11.81
2019-04-01T17:30:36.335Z,11.78
2019-04-01T17:33:08.452Z,11.69
2019-04-01T17:35:38.209Z,11.73
2019-04-01T17:38:08.138Z,11.77
2019-04-01T17:40:38.579Z,11.65
2019-04-01T17:43:09.708Z,11.56
2019-04-01T17:45:41.074Z,11.52
2019-04-01T17:48:11.244Z,11.54
2019-04-01T17:50:40.973Z,11.55
2019-04-01T17:53:13.542Z,11.35
2019-04-01T17:55:45.634Z,11.35
2019-04-01T17:58:18.941Z,11.34
2019-04-01T18:00:54.624Z,11.29
2019-04-01T18:03:25.471Z,11.27
2019-04-01T18:05:56.615Z,11.28
2019-04-01T18:08:26.144Z,11.22
2019-04-01T18:10:57.192Z,11.27
2019-04-01T18:13:29.184Z,11.19
2019-04-01T18:15:58.742Z,11.10
2019-04-01T18:18:28.476Z,11.11
2019-04-01T18:20:59.348Z,11.13
2019-04-01T18:23:30.041Z,11.02
2019-04-01T18:25:59.475Z,11.04
2019-04-01T18:28:31.762Z,11.05
2019-04-01T18:31:03.982Z,10.97
2019-04-01T18:33:33.548Z,10.93
2019-04-01T18:36:03.366Z,10.98
2019-04-01T18:38:32.873Z,11.00
2019-04-01T18:41:02.293Z,10.95
2019-04-01T18:43:32.295Z,10.88
2019-04-01T18:46:01.779Z,10.83
2019-04-01T18:48:32.259Z,10.79
2019-04-01T18:51:04.701Z,10.77
2019-04-01T18:53:36.359Z,10.74
2019-04-01T18:56:06.183Z,10.65
2019-04-01T18:58:36.829Z,10.62
2019-04-01T19:01:07.964Z,10.55
2019-04-01T19:03:39.490Z,10.57
2019-04-01T19:06:12.101Z,10.54
2019-04-01T19:08:42.923Z,10.54
2019-04-01T19:11:15.433Z,10.43
2019-04-01T19:13:45.926Z,10.43
2019-04-01T19:16:17.325Z,10.43
2019-04-01T19:18:48.857Z,10.42
2019-04-01T19:21:19.524Z,10.41
2019-04-01T19:23:49.153Z,10.41
2019-04-01T19:26:20.655Z,10.38
2019-04-01T19:28:53.243Z,10.35
2019-04-01T19:31:23.768Z,10.27
2019-04-01T19:33:53.281Z,10.22
2019-04-01T19:36:22.969Z,10.13
2019-04-01T19:38:54.351Z,10.11
2019-04-01T19:41:24.005Z,9.95
2019-04-01T19:43:53.783Z,9.94
2019-04-01T19:46:23.261Z,9.86
2019-04-01T19:48:52.795Z,9.75
2019-04-01T19:51:23.625Z,9.80
2019-04-01T19:53:53.574Z,9.75
2019-04-01T19:56:23.029Z,9.62
2019-04-01T19:58:55.070Z,9.58
2019-04-01T20:01:24.935Z,9.51
2019-04-01T20:03:55.979Z,9.49
2019-04-01T20:06:28.522Z,9.48
2019-04-01T20:08:58.069Z,9.46
2019-04-01T20:11:27.450Z,9.35
2019-04-01T20:13:57.142Z,9.33
2019-04-01T20:16:28.170Z,9.28
2019-04-01T20:19:00.181Z,9.27
2019-04-01T20:21:30.110Z,9.19
2019-04-01T20:23:59.624Z,9.08
2019-04-01T20:26:29.374Z,9.01
2019-04-01T20:29:01.776Z,9.04
2019-04-01T20:31:33.182Z,9.04
2019-04-01T20:34:04.315Z,9.02
2019-04-01T20:36:35.256Z,8.94
2019-04-01T20:39:07.219Z,8.95
2019-04-01T20:41:38.455Z,8.90
2019-04-01T20:44:09.160Z,8.85
2019-04-01T20:46:39.261Z,8.80
2019-04-01T20:49:08.961Z,8.76
2019-04-01T20:51:38.849Z,8.69
2019-04-01T20:54:08.476Z,8.71
2019-04-01T20:56:38.059Z,8.72
2019-04-01T20:59:07.907Z,8.68
2019-04-01T21:01:43.236Z,8.56
2019-04-01T21:04:12.769Z,8.57
2019-04-01T21:06:42.550Z,8.55
2019-04-01T21:09:11.974Z,8.61
2019-04-01T21:11:42.914Z,8.67
2019-04-01T21:14:12.563Z,8.67
2019-04-01T21:16:41.967Z,8.65
2019-04-01T21:19:14.288Z,8.58
2019-04-01T21:21:44.012Z,8.52
2019-04-01T21:24:16.735Z,8.60
2019-04-01T21:26:46.222Z,8.62
2019-04-01T21:29:16.831Z,8.60
2019-04-01T21:31:48.522Z,8.60
2019-04-01T21:34:18.053Z,8.62
2019-04-01T21:36:49.035Z,8.67
2019-04-01T21:39:18.564Z,8.66
2019-04-01T21:41:49.662Z,8.68
2019-04-01T21:44:19.317Z,8.68
2019-04-01T21:46:48.825Z,8.71
2019-04-01T21:49:19.340Z,8.60
2019-04-01T21:51:49.005Z,8.61
2019-04-01T21:54:20.355Z,8.63
2019-04-01T21:56:52.147Z,8.72
2019-04-01T21:59:25.049Z,8.61
2019-04-01T22:01:54.448Z,8.56
2019-04-01T22:04:24.292Z,8.57
2019-04-01T22:06:55.610Z,8.57
2019-04-01T22:09:24.984Z,8.58
2019-04-01T22:11:54.355Z,8.55
2019-04-01T22:14:27.008Z,8.58
2019-04-01T22:16:56.377Z,8.53
2019-04-01T22:19:26.861Z,8.55
2019-04-01T22:21:56.343Z,8.52
2019-04-01T22:24:26.846Z,8.53
2019-04-01T22:26:58.003Z,8.50
2019-04-01T22:29:27.491Z,8.52
2019-04-01T22:31:56.856Z,8.48
2019-04-01T22:34:27.280Z,8.39
2019-04-01T22:36:58.445Z,8.35
2019-04-01T22:39:27.809Z,8.36
2019-04-01T22:41:58.286Z,8.27
2019-04-01T22:44:28.128Z,8.20
2019-04-01T22:46:59.304Z,8.28
2019-04-01T22:49:30.501Z,8.22
2019-04-01T22:52:00.398Z,8.25
2019-04-01T22:54:30.229Z,8.24
2019-04-01T22:57:00.431Z,8.18
2019-04-01T22:59:29.858Z,8.24
2019-04-01T23:02:01.205Z,8.25
2019-04-01T23:04:31.824Z,8.23
2019-04-01T23:07:01.798Z,8.18
2019-04-01T23:09:31.162Z,8.11
2019-04-01T23:12:00.536Z,8.12
2019-04-01T23:14:31.636Z,8.03
2019-04-01T23:17:01.015Z,8.12
2019-04-01T23:19:30.391Z,8.08
2019-04-01T23:22:00.284Z,8.02
2019-04-01T23:24:30.044Z,8.07
2019-04-01T23:26:59.444Z,7.97
2019-04-01T23:29:30.734Z,7.97
2019-04-01T23:32:00.099Z,7.96
2019-04-01T23:34:30.948Z,7.98
2019-04-01T23:37:03.460Z,7.99
2019-04-01T23:39:33.288Z,7.88
2019-04-01T23:42:03.629Z,7.85
2019-04-01T23:44:34.471Z,7.81
2019-04-01T23:47:05.051Z,7.90
2019-04-01T23:49:34.445Z,7.94
2019-04-01T23:52:05.326Z,7.87
2019-04-01T23:54:36.131Z,7.85
2019-04-01T23:57:05.615Z,7.83
2019-04-01T23:59:35.258Z,7.81
